KCHA 230757Z 2308/2406 02012KT P6SM SKC
TEMPO 2308/2311 02012G20KT
FM231100 03013KT P6SM FEW250
FM231800 04006KT P6SM FEW250
FM240100 00000KT P6SM SKC
From batch tds/tafs/production/2022/9/23/h07_m59_tafs.cache.xml
Issued (9 days ago)
Forecasts
2308/2311 2012KT P6SM SKC

---
fcst_time_to: '2022-09-23T11:00:00Z'
sky_condition:
- sky_cover: SKC
wind_speed_kt: '12'
fcst_time_from: '2022-09-23T08:00:00Z'
wind_dir_degrees: '20'
visibility_statute_mi: '6.21'

TEMPO 2308/2311 2012G20KT

---
fcst_time_to: '2022-09-23T11:00:00Z'
wind_gust_kt: '20'
wind_speed_kt: '12'
fcst_time_from: '2022-09-23T08:00:00Z'
change_indicator: TEMPO
wind_dir_degrees: '20'

FM231100 3013KT P6SM FEW25000

---
fcst_time_to: '2022-09-23T18:00:00Z'
sky_condition:
- sky_cover: FEW
  cloud_base_ft_agl: '25000'
wind_speed_kt: '13'
fcst_time_from: '2022-09-23T11:00:00Z'
change_indicator: FM
wind_dir_degrees: '30'
visibility_statute_mi: '6.21'

FM231800 4006KT P6SM FEW25000

---
fcst_time_to: '2022-09-24T01:00:00Z'
sky_condition:
- sky_cover: FEW
  cloud_base_ft_agl: '25000'
wind_speed_kt: '6'
fcst_time_from: '2022-09-23T18:00:00Z'
change_indicator: FM
wind_dir_degrees: '40'
visibility_statute_mi: '6.21'

FM240100 VRB00KT P6SM SKC

---
fcst_time_to: '2022-09-24T06:00:00Z'
sky_condition:
- sky_cover: SKC
wind_speed_kt: '0'
fcst_time_from: '2022-09-24T01:00:00Z'
change_indicator: FM
wind_dir_degrees: '0'
visibility_statute_mi: '6.21'

talk